sensor_id;sensor_type;location;lat;lon;timestamp;temperature;humidity
19090;DHT22;9677;50.656;13.064;2022-08-23T00:01:47;21.10;50.00
19090;DHT22;9677;50.656;13.064;2022-08-23T00:04:21;21.00;50.00
19090;DHT22;9677;50.656;13.064;2022-08-23T00:07:02;21.00;50.10
19090;DHT22;9677;50.656;13.064;2022-08-23T00:09:33;21.00;50.10
19090;DHT22;9677;50.656;13.064;2022-08-23T00:12:06;21.00;50.80
19090;DHT22;9677;50.656;13.064;2022-08-23T00:14:40;20.90;50.20
19090;DHT22;9677;50.656;13.064;2022-08-23T00:17:12;20.90;50.30
19090;DHT22;9677;50.656;13.064;2022-08-23T00:19:59;20.90;50.30
19090;DHT22;9677;50.656;13.064;2022-08-23T00:22:28;20.90;50.30
19090;DHT22;9677;50.656;13.064;2022-08-23T00:24:56;20.90;50.40
19090;DHT22;9677;50.656;13.064;2022-08-23T00:27:25;20.90;50.40
19090;DHT22;9677;50.656;13.064;2022-08-23T00:29:54;20.80;50.40
19090;DHT22;9677;50.656;13.064;2022-08-23T00:32:29;20.80;50.50
19090;DHT22;9677;50.656;13.064;2022-08-23T00:34:59;20.80;50.60
19090;DHT22;9677;50.656;13.064;2022-08-23T00:37:29;20.80;51.10
19090;DHT22;9677;50.656;13.064;2022-08-23T00:39:58;20.70;50.50
19090;DHT22;9677;50.656;13.064;2022-08-23T00:42:32;20.70;50.50
19090;DHT22;9677;50.656;13.064;2022-08-23T00:45:25;20.80;50.70
19090;DHT22;9677;50.656;13.064;2022-08-23T00:48:14;20.60;50.70
19090;DHT22;9677;50.656;13.064;2022-08-23T00:50:49;20.60;50.80
19090;DHT22;9677;50.656;13.064;2022-08-23T00:53:23;20.90;51.10
19090;DHT22;9677;50.656;13.064;2022-08-23T00:55:57;20.60;50.90
19090;DHT22;9677;50.656;13.064;2022-08-23T00:58:31;20.60;50.90
19090;DHT22;9677;50.656;13.064;2022-08-23T01:01:00;20.60;50.90
19090;DHT22;9677;50.656;13.064;2022-08-23T01:03:33;20.60;50.90
19090;DHT22;9677;50.656;13.064;2022-08-23T01:06:09;20.60;51.00
19090;DHT22;9677;50.656;13.064;2022-08-23T01:08:43;20.50;51.00
19090;DHT22;9677;50.656;13.064;2022-08-23T01:11:19;20.50;50.90
19090;DHT22;9677;50.656;13.064;2022-08-23T01:13:55;20.50;51.00
19090;DHT22;9677;50.656;13.064;2022-08-23T01:16:31;20.50;51.00
19090;DHT22;9677;50.656;13.064;2022-08-23T01:19:09;20.50;51.10
19090;DHT22;9677;50.656;13.064;2022-08-23T01:21:46;20.50;51.10
19090;DHT22;9677;50.656;13.064;2022-08-23T01:24:21;20.70;51.20
19090;DHT22;9677;50.656;13.064;2022-08-23T01:27:11;20.50;51.10
19090;DHT22;9677;50.656;13.064;2022-08-23T01:29:40;20.50;51.10
19090;DHT22;9677;50.656;13.064;2022-08-23T01:32:10;20.50;51.10
19090;DHT22;9677;50.656;13.064;2022-08-23T01:34:39;20.50;51.10
19090;DHT22;9677;50.656;13.064;2022-08-23T01:37:18;20.40;51.10
19090;DHT22;9677;50.656;13.064;2022-08-23T01:39:50;20.50;51.20
19090;DHT22;9677;50.656;13.064;2022-08-23T01:42:19;20.40;51.20
19090;DHT22;9677;50.656;13.064;2022-08-23T01:44:47;20.50;51.80
19090;DHT22;9677;50.656;13.064;2022-08-23T01:47:16;20.40;51.80
19090;DHT22;9677;50.656;13.064;2022-08-23T01:49:45;20.40;51.30
19090;DHT22;9677;50.656;13.064;2022-08-23T01:52:13;20.50;51.30
19090;DHT22;9677;50.656;13.064;2022-08-23T01:54:43;20.40;51.30
19090;DHT22;9677;50.656;13.064;2022-08-23T01:57:13;20.40;51.30
19090;DHT22;9677;50.656;13.064;2022-08-23T01:59:41;20.40;51.30
19090;DHT22;9677;50.656;13.064;2022-08-23T02:02:10;20.40;51.30
19090;DHT22;9677;50.656;13.064;2022-08-23T02:04:39;20.40;51.20
19090;DHT22;9677;50.656;13.064;2022-08-23T02:07:07;20.40;51.30
19090;DHT22;9677;50.656;13.064;2022-08-23T02:09:36;20.50;51.30
19090;DHT22;9677;50.656;13.064;2022-08-23T02:12:06;20.30;51.30
19090;DHT22;9677;50.656;13.064;2022-08-23T02:14:36;20.30;51.30
19090;DHT22;9677;50.656;13.064;2022-08-23T02:17:15;20.30;51.40
19090;DHT22;9677;50.656;13.064;2022-08-23T02:19:44;20.20;51.30
19090;DHT22;9677;50.656;13.064;2022-08-23T02:22:13;20.20;51.40
19090;DHT22;9677;50.656;13.064;2022-08-23T02:24:44;20.20;51.50
19090;DHT22;9677;50.656;13.064;2022-08-23T02:27:15;20.20;51.50
19090;DHT22;9677;50.656;13.064;2022-08-23T02:29:46;20.20;51.60
19090;DHT22;9677;50.656;13.064;2022-08-23T02:32:19;20.10;51.60
19090;DHT22;9677;50.656;13.064;2022-08-23T02:34:48;20.10;51.60
19090;DHT22;9677;50.656;13.064;2022-08-23T02:37:30;20.10;51.60
19090;DHT22;9677;50.656;13.064;2022-08-23T02:39:59;20.10;51.70
19090;DHT22;9677;50.656;13.064;2022-08-23T02:42:28;20.10;51.80
19090;DHT22;9677;50.656;13.064;2022-08-23T02:44:59;20.10;51.80
19090;DHT22;9677;50.656;13.064;2022-08-23T02:47:29;20.10;51.90
19090;DHT22;9677;50.656;13.064;2022-08-23T02:50:10;20.10;51.80
19090;DHT22;9677;50.656;13.064;2022-08-23T02:52:39;20.10;51.90
19090;DHT22;9677;50.656;13.064;2022-08-23T02:55:08;20.10;51.90
19090;DHT22;9677;50.656;13.064;2022-08-23T02:57:37;20.10;51.90
19090;DHT22;9677;50.656;13.064;2022-08-23T03:00:12;20.20;51.90
19090;DHT22;9677;50.656;13.064;2022-08-23T03:02:42;20.10;52.00
19090;DHT22;9677;50.656;13.064;2022-08-23T03:05:13;20.10;51.90
19090;DHT22;9677;50.656;13.064;2022-08-23T03:07:43;20.30;52.10
19090;DHT22;9677;50.656;13.064;2022-08-23T03:10:12;20.10;52.00
19090;DHT22;9677;50.656;13.064;2022-08-23T03:12:48;20.10;52.00
19090;DHT22;9677;50.656;13.064;2022-08-23T03:15:19;20.10;52.00
19090;DHT22;9677;50.656;13.064;2022-08-23T03:17:48;20.10;52.10
19090;DHT22;9677;50.656;13.064;2022-08-23T03:20:17;20.10;52.10
19090;DHT22;9677;50.656;13.064;2022-08-23T03:22:46;20.20;52.20
19090;DHT22;9677;50.656;13.064;2022-08-23T03:25:24;20.10;52.10
19090;DHT22;9677;50.656;13.064;2022-08-23T03:28:02;20.10;52.10
19090;DHT22;9677;50.656;13.064;2022-08-23T03:30:34;20.20;52.20
19090;DHT22;9677;50.656;13.064;2022-08-23T03:33:04;20.10;52.20
19090;DHT22;9677;50.656;13.064;2022-08-23T03:35:33;20.10;52.10
19090;DHT22;9677;50.656;13.064;2022-08-23T03:38:03;20.10;52.20
19090;DHT22;9677;50.656;13.064;2022-08-23T03:40:31;20.10;52.20
19090;DHT22;9677;50.656;13.064;2022-08-23T03:43:00;20.10;52.20
19090;DHT22;9677;50.656;13.064;2022-08-23T03:45:29;20.20;52.30
19090;DHT22;9677;50.656;13.064;2022-08-23T03:48:00;20.10;52.30
19090;DHT22;9677;50.656;13.064;2022-08-23T03:50:32;20.10;52.40
19090;DHT22;9677;50.656;13.064;2022-08-23T03:53:00;20.10;52.40
19090;DHT22;9677;50.656;13.064;2022-08-23T03:55:29;20.10;52.40
19090;DHT22;9677;50.656;13.064;2022-08-23T03:57:59;20.20;52.50
19090;DHT22;9677;50.656;13.064;2022-08-23T04:00:27;20.20;52.60
19090;DHT22;9677;50.656;13.064;2022-08-23T04:02:56;20.10;52.50
19090;DHT22;9677;50.656;13.064;2022-08-23T04:05:27;20.10;52.50
19090;DHT22;9677;50.656;13.064;2022-08-23T04:08:07;20.10;52.50
19090;DHT22;9677;50.656;13.064;2022-08-23T04:10:39;20.10;52.60
19090;DHT22;9677;50.656;13.064;2022-08-23T04:13:08;20.10;52.50
19090;DHT22;9677;50.656;13.064;2022-08-23T04:15:37;20.20;52.60
19090;DHT22;9677;50.656;13.064;2022-08-23T04:18:09;20.10;52.50
19090;DHT22;9677;50.656;13.064;2022-08-23T04:20:39;20.20;52.60
19090;DHT22;9677;50.656;13.064;2022-08-23T04:23:07;20.20;52.70
19090;DHT22;9677;50.656;13.064;2022-08-23T04:25:46;20.10;52.60
19090;DHT22;9677;50.656;13.064;2022-08-23T04:28:16;20.10;52.60
19090;DHT22;9677;50.656;13.064;2022-08-23T04:30:45;20.10;52.60
19090;DHT22;9677;50.656;13.064;2022-08-23T04:33:14;20.10;52.70
19090;DHT22;9677;50.656;13.064;2022-08-23T04:35:46;20.30;52.90
19090;DHT22;9677;50.656;13.064;2022-08-23T04:38:15;20.10;52.80
19090;DHT22;9677;50.656;13.064;2022-08-23T04:40:55;20.10;52.80
19090;DHT22;9677;50.656;13.064;2022-08-23T04:43:44;20.10;52.80
19090;DHT22;9677;50.656;13.064;2022-08-23T04:46:14;20.10;52.80
19090;DHT22;9677;50.656;13.064;2022-08-23T04:48:46;20.00;52.90
19090;DHT22;9677;50.656;13.064;2022-08-23T04:51:17;20.00;53.00
19090;DHT22;9677;50.656;13.064;2022-08-23T04:53:45;20.00;53.00
19090;DHT22;9677;50.656;13.064;2022-08-23T04:56:43;20.00;53.00
19090;DHT22;9677;50.656;13.064;2022-08-23T04:59:18;20.00;53.10
19090;DHT22;9677;50.656;13.064;2022-08-23T05:01:48;20.00;53.20
19090;DHT22;9677;50.656;13.064;2022-08-23T05:04:17;20.00;53.30
19090;DHT22;9677;50.656;13.064;2022-08-23T05:06:46;20.00;53.40
19090;DHT22;9677;50.656;13.064;2022-08-23T05:09:15;20.00;53.50
19090;DHT22;9677;50.656;13.064;2022-08-23T05:11:48;20.10;53.50
19090;DHT22;9677;50.656;13.064;2022-08-23T05:14:17;20.00;53.50
19090;DHT22;9677;50.656;13.064;2022-08-23T05:16:45;20.00;53.60
19090;DHT22;9677;50.656;13.064;2022-08-23T05:19:14;20.00;53.60
19090;DHT22;9677;50.656;13.064;2022-08-23T05:21:47;20.00;53.60
19090;DHT22;9677;50.656;13.064;2022-08-23T05:24:22;20.00;53.70
19090;DHT22;9677;50.656;13.064;2022-08-23T05:26:51;20.00;53.70
19090;DHT22;9677;50.656;13.064;2022-08-23T05:29:19;20.00;53.70
19090;DHT22;9677;50.656;13.064;2022-08-23T05:31:50;20.00;53.80
19090;DHT22;9677;50.656;13.064;2022-08-23T05:34:21;20.00;53.70
19090;DHT22;9677;50.656;13.064;2022-08-23T05:36:53;20.00;53.90
19090;DHT22;9677;50.656;13.064;2022-08-23T05:39:33;20.00;54.00
19090;DHT22;9677;50.656;13.064;2022-08-23T05:42:10;20.00;54.00
19090;DHT22;9677;50.656;13.064;2022-08-23T05:44:41;20.10;54.20
19090;DHT22;9677;50.656;13.064;2022-08-23T05:47:13;20.00;54.10
19090;DHT22;9677;50.656;13.064;2022-08-23T05:49:50;20.10;54.20
19090;DHT22;9677;50.656;13.064;2022-08-23T05:52:20;20.10;54.20
19090;DHT22;9677;50.656;13.064;2022-08-23T05:54:48;20.10;54.20
19090;DHT22;9677;50.656;13.064;2022-08-23T05:57:35;20.10;54.20
19090;DHT22;9677;50.656;13.064;2022-08-23T06:00:07;20.10;54.20
19090;DHT22;9677;50.656;13.064;2022-08-23T06:02:44;20.10;54.30
19090;DHT22;9677;50.656;13.064;2022-08-23T06:05:13;20.10;54.30
19090;DHT22;9677;50.656;13.064;2022-08-23T06:07:45;20.20;54.30
19090;DHT22;9677;50.656;13.064;2022-08-23T06:10:15;20.10;54.30
19090;DHT22;9677;50.656;13.064;2022-08-23T06:12:51;20.20;54.30
19090;DHT22;9677;50.656;13.064;2022-08-23T06:15:20;20.20;54.30
19090;DHT22;9677;50.656;13.064;2022-08-23T06:17:48;20.20;54.40
19090;DHT22;9677;50.656;13.064;2022-08-23T06:20:17;20.20;54.40
19090;DHT22;9677;50.656;13.064;2022-08-23T06:23:04;20.20;54.40
19090;DHT22;9677;50.656;13.064;2022-08-23T06:25:35;20.30;54.50
19090;DHT22;9677;50.656;13.064;2022-08-23T06:28:23;20.30;54.60
19090;DHT22;9677;50.656;13.064;2022-08-23T06:30:53;20.20;54.70
19090;DHT22;9677;50.656;13.064;2022-08-23T06:33:31;20.30;54.50
19090;DHT22;9677;50.656;13.064;2022-08-23T06:36:29;20.30;54.50
19090;DHT22;9677;50.656;13.064;2022-08-23T06:39:14;20.30;54.50
19090;DHT22;9677;50.656;13.064;2022-08-23T06:42:06;20.30;54.60
19090;DHT22;9677;50.656;13.064;2022-08-23T06:45:01;20.30;54.60
19090;DHT22;9677;50.656;13.064;2022-08-23T06:47:40;20.40;54.50
19090;DHT22;9677;50.656;13.064;2022-08-23T06:50:09;20.30;54.60
19090;DHT22;9677;50.656;13.064;2022-08-23T06:52:56;20.60;54.80
19090;DHT22;9677;50.656;13.064;2022-08-23T06:55:35;20.30;54.60
19090;DHT22;9677;50.656;13.064;2022-08-23T06:58:16;20.40;54.80
19090;DHT22;9677;50.656;13.064;2022-08-23T07:01:09;20.40;54.80
19090;DHT22;9677;50.656;13.064;2022-08-23T07:04:07;20.40;54.80
19090;DHT22;9677;50.656;13.064;2022-08-23T07:06:55;20.40;54.80
19090;DHT22;9677;50.656;13.064;2022-08-23T07:09:24;20.50;54.90
19090;DHT22;9677;50.656;13.064;2022-08-23T07:11:54;20.50;54.90
19090;DHT22;9677;50.656;13.064;2022-08-23T07:14:23;20.50;55.00
19090;DHT22;9677;50.656;13.064;2022-08-23T07:16:55;20.50;55.10
19090;DHT22;9677;50.656;13.064;2022-08-23T07:19:27;20.50;55.10
19090;DHT22;9677;50.656;13.064;2022-08-23T07:21:58;20.50;55.10
19090;DHT22;9677;50.656;13.064;2022-08-23T07:24:28;20.60;55.10
19090;DHT22;9677;50.656;13.064;2022-08-23T07:27:03;20.60;55.20
19090;DHT22;9677;50.656;13.064;2022-08-23T07:29:41;20.60;55.40
19090;DHT22;9677;50.656;13.064;2022-08-23T07:32:09;20.60;55.30
19090;DHT22;9677;50.656;13.064;2022-08-23T07:34:38;20.70;55.30
19090;DHT22;9677;50.656;13.064;2022-08-23T07:37:06;20.70;55.30
19090;DHT22;9677;50.656;13.064;2022-08-23T07:39:42;20.70;55.30
19090;DHT22;9677;50.656;13.064;2022-08-23T07:42:12;20.70;55.90
19090;DHT22;9677;50.656;13.064;2022-08-23T07:44:51;20.70;55.40
19090;DHT22;9677;50.656;13.064;2022-08-23T07:47:23;20.70;55.30
19090;DHT22;9677;50.656;13.064;2022-08-23T07:49:54;20.80;55.30
19090;DHT22;9677;50.656;13.064;2022-08-23T07:52:22;20.80;55.30
19090;DHT22;9677;50.656;13.064;2022-08-23T07:54:51;20.80;55.30
19090;DHT22;9677;50.656;13.064;2022-08-23T07:57:38;20.80;55.30
19090;DHT22;9677;50.656;13.064;2022-08-23T08:00:26;20.80;56.00
19090;DHT22;9677;50.656;13.064;2022-08-23T08:03:12;20.80;55.40
19090;DHT22;9677;50.656;13.064;2022-08-23T08:06:06;21.10;55.70
19090;DHT22;9677;50.656;13.064;2022-08-23T08:08:36;20.90;55.70
19090;DHT22;9677;50.656;13.064;2022-08-23T08:11:04;20.90;55.50
19090;DHT22;9677;50.656;13.064;2022-08-23T08:13:36;20.90;55.60
19090;DHT22;9677;50.656;13.064;2022-08-23T08:16:06;21.00;55.80
19090;DHT22;9677;50.656;13.064;2022-08-23T08:18:38;21.00;55.70
19090;DHT22;9677;50.656;13.064;2022-08-23T08:21:27;21.10;55.70
19090;DHT22;9677;50.656;13.064;2022-08-23T08:24:15;21.10;55.80
19090;DHT22;9677;50.656;13.064;2022-08-23T08:26:50;21.10;55.80
19090;DHT22;9677;50.656;13.064;2022-08-23T08:29:20;21.20;55.80
19090;DHT22;9677;50.656;13.064;2022-08-23T08:31:50;21.30;55.90
19090;DHT22;9677;50.656;13.064;2022-08-23T08:34:20;21.20;55.80
19090;DHT22;9677;50.656;13.064;2022-08-23T08:36:51;21.20;55.90
19090;DHT22;9677;50.656;13.064;2022-08-23T08:39:27;21.20;55.90
19090;DHT22;9677;50.656;13.064;2022-08-23T08:42:08;21.20;56.00
19090;DHT22;9677;50.656;13.064;2022-08-23T08:44:52;21.20;56.10
19090;DHT22;9677;50.656;13.064;2022-08-23T08:47:32;21.30;56.20
19090;DHT22;9677;50.656;13.064;2022-08-23T08:50:08;21.30;56.10
19090;DHT22;9677;50.656;13.064;2022-08-23T08:52:50;21.30;56.30
19090;DHT22;9677;50.656;13.064;2022-08-23T08:55:40;21.40;56.20
19090;DHT22;9677;50.656;13.064;2022-08-23T08:58:20;21.60;56.30
19090;DHT22;9677;50.656;13.064;2022-08-23T09:00:54;21.70;56.40
19090;DHT22;9677;50.656;13.064;2022-08-23T09:03:30;21.60;56.20
19090;DHT22;9677;50.656;13.064;2022-08-23T09:06:04;21.60;56.40
19090;DHT22;9677;50.656;13.064;2022-08-23T09:08:47;21.60;56.40
19090;DHT22;9677;50.656;13.064;2022-08-23T09:11:34;21.70;56.50
19090;DHT22;9677;50.656;13.064;2022-08-23T09:14:18;21.80;56.70
19090;DHT22;9677;50.656;13.064;2022-08-23T09:17:13;21.90;56.60
19090;DHT22;9677;50.656;13.064;2022-08-23T09:19:49;21.90;56.50
19090;DHT22;9677;50.656;13.064;2022-08-23T09:22:24;22.00;56.50
19090;DHT22;9677;50.656;13.064;2022-08-23T09:24:57;22.10;56.70
19090;DHT22;9677;50.656;13.064;2022-08-23T09:27:35;22.20;56.60
19090;DHT22;9677;50.656;13.064;2022-08-23T09:30:06;22.40;56.60
19090;DHT22;9677;50.656;13.064;2022-08-23T09:32:39;22.40;56.40
19090;DHT22;9677;50.656;13.064;2022-08-23T09:35:14;22.50;56.40
19090;DHT22;9677;50.656;13.064;2022-08-23T09:37:56;22.60;56.20
19090;DHT22;9677;50.656;13.064;2022-08-23T09:40:32;22.70;56.20
19090;DHT22;9677;50.656;13.064;2022-08-23T09:43:13;22.80;56.20
19090;DHT22;9677;50.656;13.064;2022-08-23T09:45:56;22.90;56.20
19090;DHT22;9677;50.656;13.064;2022-08-23T09:48:35;23.00;56.30
19090;DHT22;9677;50.656;13.064;2022-08-23T09:51:17;23.00;56.20
19090;DHT22;9677;50.656;13.064;2022-08-23T09:54:01;23.20;56.10
19090;DHT22;9677;50.656;13.064;2022-08-23T09:56:35;23.30;55.80
19090;DHT22;9677;50.656;13.064;2022-08-23T09:59:30;23.40;55.50
19090;DHT22;9677;50.656;13.064;2022-08-23T10:02:14;23.50;55.30
19090;DHT22;9677;50.656;13.064;2022-08-23T10:04:57;23.60;55.30
19090;DHT22;9677;50.656;13.064;2022-08-23T10:07:34;23.70;55.50
19090;DHT22;9677;50.656;13.064;2022-08-23T10:10:17;23.80;55.40
19090;DHT22;9677;50.656;13.064;2022-08-23T10:12:51;23.90;55.80
19090;DHT22;9677;50.656;13.064;2022-08-23T10:15:27;24.00;54.80
19090;DHT22;9677;50.656;13.064;2022-08-23T10:18:06;24.10;54.60
19090;DHT22;9677;50.656;13.064;2022-08-23T10:20:46;24.20;54.40
19090;DHT22;9677;50.656;13.064;2022-08-23T10:23:26;24.20;54.20
19090;DHT22;9677;50.656;13.064;2022-08-23T10:26:06;24.30;54.20
19090;DHT22;9677;50.656;13.064;2022-08-23T10:28:44;24.30;54.30
19090;DHT22;9677;50.656;13.064;2022-08-23T10:31:41;24.50;54.30
19090;DHT22;9677;50.656;13.064;2022-08-23T10:34:26;24.60;54.20
19090;DHT22;9677;50.656;13.064;2022-08-23T10:37:31;24.60;54.00
19090;DHT22;9677;50.656;13.064;2022-08-23T10:40:12;24.80;53.70
19090;DHT22;9677;50.656;13.064;2022-08-23T10:42:53;24.90;54.00
19090;DHT22;9677;50.656;13.064;2022-08-23T10:45:31;25.00;53.80
19090;DHT22;9677;50.656;13.064;2022-08-23T10:48:19;25.10;53.80
19090;DHT22;9677;50.656;13.064;2022-08-23T10:50:57;25.50;54.00
19090;DHT22;9677;50.656;13.064;2022-08-23T10:53:34;25.50;53.90
19090;DHT22;9677;50.656;13.064;2022-08-23T10:56:05;25.70;53.50
19090;DHT22;9677;50.656;13.064;2022-08-23T10:58:42;25.80;53.60
19090;DHT22;9677;50.656;13.064;2022-08-23T11:01:18;25.90;53.10
19090;DHT22;9677;50.656;13.064;2022-08-23T11:03:59;26.10;52.90
19090;DHT22;9677;50.656;13.064;2022-08-23T11:06:44;26.20;52.70
19090;DHT22;9677;50.656;13.064;2022-08-23T11:09:52;26.40;52.50
19090;DHT22;9677;50.656;13.064;2022-08-23T11:12:31;26.60;51.80
19090;DHT22;9677;50.656;13.064;2022-08-23T11:15:11;26.80;52.20
19090;DHT22;9677;50.656;13.064;2022-08-23T11:18:02;27.00;51.60
19090;DHT22;9677;50.656;13.064;2022-08-23T11:21:05;27.10;51.10
19090;DHT22;9677;50.656;13.064;2022-08-23T11:23:51;27.10;50.70
19090;DHT22;9677;50.656;13.064;2022-08-23T11:29:41;27.30;50.30
19090;DHT22;9677;50.656;13.064;2022-08-23T11:32:36;27.40;50.50
19090;DHT22;9677;50.656;13.064;2022-08-23T11:35:32;27.40;50.00
19090;DHT22;9677;50.656;13.064;2022-08-23T11:38:11;27.50;50.70
19090;DHT22;9677;50.656;13.064;2022-08-23T11:41:10;27.50;50.20
19090;DHT22;9677;50.656;13.064;2022-08-23T11:43:43;27.50;49.50
19090;DHT22;9677;50.656;13.064;2022-08-23T11:46:31;27.50;49.90
19090;DHT22;9677;50.656;13.064;2022-08-23T11:49:21;27.50;49.50
19090;DHT22;9677;50.656;13.064;2022-08-23T11:52:10;27.50;49.30
19090;DHT22;9677;50.656;13.064;2022-08-23T11:54:57;27.50;49.30
19090;DHT22;9677;50.656;13.064;2022-08-23T11:57:53;27.50;49.00
19090;DHT22;9677;50.656;13.064;2022-08-23T12:00:54;27.50;49.30
19090;DHT22;9677;50.656;13.064;2022-08-23T12:03:34;27.50;48.80
19090;DHT22;9677;50.656;13.064;2022-08-23T12:09:12;27.60;48.90
19090;DHT22;9677;50.656;13.064;2022-08-23T12:12:10;27.50;49.00
19090;DHT22;9677;50.656;13.064;2022-08-23T12:14:50;27.50;48.60
19090;DHT22;9677;50.656;13.064;2022-08-23T12:18:05;27.50;48.60
19090;DHT22;9677;50.656;13.064;2022-08-23T12:20:39;27.50;48.70
19090;DHT22;9677;50.656;13.064;2022-08-23T12:23:42;27.50;48.90
19090;DHT22;9677;50.656;13.064;2022-08-23T12:26:24;27.50;48.40
19090;DHT22;9677;50.656;13.064;2022-08-23T12:28:57;27.50;48.30
19090;DHT22;9677;50.656;13.064;2022-08-23T12:31:34;27.50;48.60
19090;DHT22;9677;50.656;13.064;2022-08-23T12:34:17;27.40;49.20
19090;DHT22;9677;50.656;13.064;2022-08-23T12:36:59;27.40;48.40
19090;DHT22;9677;50.656;13.064;2022-08-23T12:39:38;27.40;48.50
19090;DHT22;9677;50.656;13.064;2022-08-23T12:42:11;27.40;48.40
19090;DHT22;9677;50.656;13.064;2022-08-23T12:44:43;27.40;48.20
19090;DHT22;9677;50.656;13.064;2022-08-23T12:47:14;27.30;48.30
19090;DHT22;9677;50.656;13.064;2022-08-23T12:49:56;27.30;48.20
19090;DHT22;9677;50.656;13.064;2022-08-23T12:52:28;27.20;47.70
19090;DHT22;9677;50.656;13.064;2022-08-23T12:54:58;27.20;48.30
19090;DHT22;9677;50.656;13.064;2022-08-23T12:57:32;27.10;48.50
19090;DHT22;9677;50.656;13.064;2022-08-23T13:00:21;27.10;48.40
19090;DHT22;9677;50.656;13.064;2022-08-23T13:02:56;27.10;48.00
19090;DHT22;9677;50.656;13.064;2022-08-23T13:05:41;27.10;48.20
19090;DHT22;9677;50.656;13.064;2022-08-23T13:08:14;27.10;48.00
19090;DHT22;9677;50.656;13.064;2022-08-23T13:10:47;27.10;48.40
19090;DHT22;9677;50.656;13.064;2022-08-23T13:13:19;27.00;48.40
19090;DHT22;9677;50.656;13.064;2022-08-23T13:15:53;27.00;48.30
19090;DHT22;9677;50.656;13.064;2022-08-23T13:18:31;27.00;48.20
19090;DHT22;9677;50.656;13.064;2022-08-23T13:21:23;26.90;47.70
19090;DHT22;9677;50.656;13.064;2022-08-23T13:23:55;26.80;47.70
19090;DHT22;9677;50.656;13.064;2022-08-23T13:26:34;26.70;48.00
19090;DHT22;9677;50.656;13.064;2022-08-23T13:29:07;26.70;48.10
19090;DHT22;9677;50.656;13.064;2022-08-23T13:31:51;26.60;48.40
19090;DHT22;9677;50.656;13.064;2022-08-23T13:34:37;26.60;48.40
19090;DHT22;9677;50.656;13.064;2022-08-23T13:37:20;26.50;48.60
19090;DHT22;9677;50.656;13.064;2022-08-23T13:39:54;26.50;48.90
19090;DHT22;9677;50.656;13.064;2022-08-23T13:42:28;26.50;49.20
19090;DHT22;9677;50.656;13.064;2022-08-23T13:45:06;26.50;49.20
19090;DHT22;9677;50.656;13.064;2022-08-23T13:47:36;26.60;49.10
19090;DHT22;9677;50.656;13.064;2022-08-23T13:50:14;26.60;49.00
19090;DHT22;9677;50.656;13.064;2022-08-23T13:52:45;26.60;49.00
19090;DHT22;9677;50.656;13.064;2022-08-23T13:55:39;26.60;49.20
19090;DHT22;9677;50.656;13.064;2022-08-23T13:58:10;26.70;49.10
19090;DHT22;9677;50.656;13.064;2022-08-23T14:00:40;26.70;49.10
19090;DHT22;9677;50.656;13.064;2022-08-23T14:03:21;26.70;49.00
19090;DHT22;9677;50.656;13.064;2022-08-23T14:05:50;26.70;49.20
19090;DHT22;9677;50.656;13.064;2022-08-23T14:08:20;26.80;49.20
19090;DHT22;9677;50.656;13.064;2022-08-23T14:10:49;26.80;49.00
19090;DHT22;9677;50.656;13.064;2022-08-23T14:13:18;26.80;49.00
19090;DHT22;9677;50.656;13.064;2022-08-23T14:15:48;26.90;49.00
19090;DHT22;9677;50.656;13.064;2022-08-23T14:18:23;26.90;48.40
19090;DHT22;9677;50.656;13.064;2022-08-23T14:20:52;26.90;48.30
19090;DHT22;9677;50.656;13.064;2022-08-23T14:23:21;26.90;48.40
19090;DHT22;9677;50.656;13.064;2022-08-23T14:25:51;26.80;48.40
19090;DHT22;9677;50.656;13.064;2022-08-23T14:28:27;27.00;48.60
19090;DHT22;9677;50.656;13.064;2022-08-23T14:30:57;26.90;48.40
19090;DHT22;9677;50.656;13.064;2022-08-23T14:33:25;27.00;48.60
19090;DHT22;9677;50.656;13.064;2022-08-23T14:35:54;27.00;48.40
19090;DHT22;9677;50.656;13.064;2022-08-23T14:38:24;27.00;48.90
19090;DHT22;9677;50.656;13.064;2022-08-23T14:40:55;27.00;48.30
19090;DHT22;9677;50.656;13.064;2022-08-23T14:43:25;27.00;48.20
19090;DHT22;9677;50.656;13.064;2022-08-23T14:45:55;27.00;48.00
19090;DHT22;9677;50.656;13.064;2022-08-23T14:48:24;27.00;48.00
19090;DHT22;9677;50.656;13.064;2022-08-23T14:50:54;27.00;48.10
19090;DHT22;9677;50.656;13.064;2022-08-23T14:53:27;26.90;48.10
19090;DHT22;9677;50.656;13.064;2022-08-23T14:55:56;26.90;48.10
19090;DHT22;9677;50.656;13.064;2022-08-23T14:58:44;26.90;48.10
19090;DHT22;9677;50.656;13.064;2022-08-23T15:01:13;26.90;48.10
19090;DHT22;9677;50.656;13.064;2022-08-23T15:03:42;26.80;48.40
19090;DHT22;9677;50.656;13.064;2022-08-23T15:06:12;26.80;48.20
19090;DHT22;9677;50.656;13.064;2022-08-23T15:08:43;26.80;48.20
19090;DHT22;9677;50.656;13.064;2022-08-23T15:11:12;26.80;48.20
19090;DHT22;9677;50.656;13.064;2022-08-23T15:14:01;26.70;48.10
19090;DHT22;9677;50.656;13.064;2022-08-23T15:16:29;26.80;48.30
19090;DHT22;9677;50.656;13.064;2022-08-23T15:18:59;26.70;48.30
19090;DHT22;9677;50.656;13.064;2022-08-23T15:21:28;26.70;48.20
19090;DHT22;9677;50.656;13.064;2022-08-23T15:23:57;26.70;48.30
19090;DHT22;9677;50.656;13.064;2022-08-23T15:26:28;26.70;48.30
19090;DHT22;9677;50.656;13.064;2022-08-23T15:28:57;26.70;48.20
19090;DHT22;9677;50.656;13.064;2022-08-23T15:31:26;26.70;48.30
19090;DHT22;9677;50.656;13.064;2022-08-23T15:33:56;26.70;48.40
19090;DHT22;9677;50.656;13.064;2022-08-23T15:36:24;26.70;48.40
19090;DHT22;9677;50.656;13.064;2022-08-23T15:38:53;26.70;48.50
19090;DHT22;9677;50.656;13.064;2022-08-23T15:41:23;26.70;48.40
19090;DHT22;9677;50.656;13.064;2022-08-23T15:43:52;26.70;48.30
19090;DHT22;9677;50.656;13.064;2022-08-23T15:46:22;26.70;48.30
19090;DHT22;9677;50.656;13.064;2022-08-23T15:48:55;26.70;48.40
19090;DHT22;9677;50.656;13.064;2022-08-23T15:51:25;26.80;48.40
19090;DHT22;9677;50.656;13.064;2022-08-23T15:53:54;26.80;48.50
19090;DHT22;9677;50.656;13.064;2022-08-23T15:56:29;26.80;48.50
19090;DHT22;9677;50.656;13.064;2022-08-23T15:59:03;26.90;48.50
19090;DHT22;9677;50.656;13.064;2022-08-23T16:01:31;26.90;48.50
19090;DHT22;9677;50.656;13.064;2022-08-23T16:04:01;26.90;48.50
19090;DHT22;9677;50.656;13.064;2022-08-23T16:06:31;26.90;48.50
19090;DHT22;9677;50.656;13.064;2022-08-23T16:09:03;27.00;48.50
19090;DHT22;9677;50.656;13.064;2022-08-23T16:11:34;27.00;48.50
19090;DHT22;9677;50.656;13.064;2022-08-23T16:14:03;27.00;48.50
19090;DHT22;9677;50.656;13.064;2022-08-23T16:16:36;27.00;48.50
19090;DHT22;9677;50.656;13.064;2022-08-23T16:19:06;27.00;48.20
19090;DHT22;9677;50.656;13.064;2022-08-23T16:21:35;27.00;48.40
19090;DHT22;9677;50.656;13.064;2022-08-23T16:24:05;27.00;48.30
19090;DHT22;9677;50.656;13.064;2022-08-23T16:26:37;27.00;48.30
19090;DHT22;9677;50.656;13.064;2022-08-23T16:29:09;27.00;48.30